sensor_id;sensor_type;location;lat;lon;timestamp;temperature;humidity
58363;DHT22;54977;51.510;7.522;2022-09-27T03:27:01;13.10;64.50
58363;DHT22;54977;51.510;7.522;2022-09-27T03:32:05;10.80;74.40
58363;DHT22;54977;51.510;7.522;2022-09-27T03:37:07;10.70;74.90
58363;DHT22;54977;51.510;7.522;2022-09-27T03:42:09;10.60;74.80
58363;DHT22;54977;51.510;7.522;2022-09-27T03:47:12;10.80;74.90
58363;DHT22;54977;51.510;7.522;2022-09-27T03:52:14;10.80;75.10
58363;DHT22;54977;51.510;7.522;2022-09-27T03:57:18;10.70;75.00
58363;DHT22;54977;51.510;7.522;2022-09-27T04:27:34;10.70;74.90
58363;DHT22;54977;51.510;7.522;2022-09-27T04:37:43;10.50;73.80
58363;DHT22;54977;51.510;7.522;2022-09-27T04:42:46;10.50;74.10
58363;DHT22;54977;51.510;7.522;2022-09-27T04:47:49;10.40;74.30
58363;DHT22;54977;51.510;7.522;2022-09-27T04:52:52;10.30;74.40
58363;DHT22;54977;51.510;7.522;2022-09-27T04:57:54;10.20;74.50
58363;DHT22;54977;51.510;7.522;2022-09-27T05:02:57;10.10;75.50
58363;DHT22;54977;51.510;7.522;2022-09-27T05:07:59;10.20;74.90
58363;DHT22;54977;51.510;7.522;2022-09-27T05:13:01;10.20;75.10
58363;DHT22;54977;51.510;7.522;2022-09-27T05:18:05;10.10;75.90
58363;DHT22;54977;51.510;7.522;2022-09-27T05:23:07;10.20;75.40
58363;DHT22;54977;51.510;7.522;2022-09-27T05:28:09;10.30;75.40
58363;DHT22;54977;51.510;7.522;2022-09-27T05:33:12;10.40;75.10
58363;DHT22;54977;51.510;7.522;2022-09-27T05:38:14;10.50;74.40
58363;DHT22;54977;51.510;7.522;2022-09-27T05:43:17;10.40;74.80
58363;DHT22;54977;51.510;7.522;2022-09-27T05:48:20;10.50;74.10
58363;DHT22;54977;51.510;7.522;2022-09-27T05:53:22;10.50;74.40
58363;DHT22;54977;51.510;7.522;2022-09-27T05:58:24;10.50;74.40
58363;DHT22;54977;51.510;7.522;2022-09-27T17:07:26;10.50;73.80
58363;DHT22;54977;51.510;7.522;2022-09-27T17:47:45;11.60;62.80
58363;DHT22;54977;51.510;7.522;2022-09-27T17:53:06;10.80;65.80
58363;DHT22;54977;51.510;7.522;2022-09-27T17:58:08;10.70;65.60
58363;DHT22;54977;51.510;7.522;2022-09-27T18:03:10;10.70;65.90
58363;DHT22;54977;51.510;7.522;2022-09-27T18:08:13;10.70;66.00
58363;DHT22;54977;51.510;7.522;2022-09-27T18:13:15;10.60;66.50
58363;DHT22;54977;51.510;7.522;2022-09-27T18:18:17;10.50;66.30
58363;DHT22;54977;51.510;7.522;2022-09-27T18:23:20;10.50;65.50
58363;DHT22;54977;51.510;7.522;2022-09-27T18:43:32;10.50;65.20
58363;DHT22;54977;51.510;7.522;2022-09-27T18:48:36;10.40;65.10
58363;DHT22;54977;51.510;7.522;2022-09-27T18:53:39;10.40;64.30
58363;DHT22;54977;51.510;7.522;2022-09-27T18:58:42;10.30;64.30
58363;DHT22;54977;51.510;7.522;2022-09-27T19:03:44;10.20;64.80
58363;DHT22;54977;51.510;7.522;2022-09-27T19:08:51;10.20;64.50
58363;DHT22;54977;51.510;7.522;2022-09-27T19:13:55;10.30;64.50
58363;DHT22;54977;51.510;7.522;2022-09-27T19:18:57;10.30;64.90
58363;DHT22;54977;51.510;7.522;2022-09-27T19:24:00;10.30;65.40
58363;DHT22;54977;51.510;7.522;2022-09-27T19:34:05;10.30;65.30
58363;DHT22;54977;51.510;7.522;2022-09-27T19:39:09;10.30;65.70
58363;DHT22;54977;51.510;7.522;2022-09-27T19:44:10;10.20;66.20
58363;DHT22;54977;51.510;7.522;2022-09-27T19:49:13;10.10;66.30
58363;DHT22;54977;51.510;7.522;2022-09-27T19:54:16;10.00;67.00
58363;DHT22;54977;51.510;7.522;2022-09-27T19:59:18;10.00;67.50
58363;DHT22;54977;51.510;7.522;2022-09-27T20:04:20;10.00;67.70
58363;DHT22;54977;51.510;7.522;2022-09-27T20:09:23;9.90;68.20
58363;DHT22;54977;51.510;7.522;2022-09-27T20:19:27;9.90;68.30
58363;DHT22;54977;51.510;7.522;2022-09-27T20:24:30;9.90;67.90
58363;DHT22;54977;51.510;7.522;2022-09-27T20:29:32;10.00;68.20
58363;DHT22;54977;51.510;7.522;2022-09-27T20:34:34;10.00;68.20
58363;DHT22;54977;51.510;7.522;2022-09-27T20:39:37;9.90;68.50
58363;DHT22;54977;51.510;7.522;2022-09-27T20:44:39;10.10;68.40
58363;DHT22;54977;51.510;7.522;2022-09-27T20:49:41;10.10;68.20
58363;DHT22;54977;51.510;7.522;2022-09-27T20:59:46;10.20;67.70
58363;DHT22;54977;51.510;7.522;2022-09-27T21:04:48;10.30;67.30
58363;DHT22;54977;51.510;7.522;2022-09-27T21:09:51;10.30;67.80
58363;DHT22;54977;51.510;7.522;2022-09-27T21:14:53;10.30;68.00
58363;DHT22;54977;51.510;7.522;2022-09-27T21:19:54;10.30;68.90
58363;DHT22;54977;51.510;7.522;2022-09-27T21:30:00;10.30;69.40
58363;DHT22;54977;51.510;7.522;2022-09-27T21:35:02;10.20;70.00
58363;DHT22;54977;51.510;7.522;2022-09-27T21:40:07;10.10;70.10
58363;DHT22;54977;51.510;7.522;2022-09-27T21:45:09;10.00;70.90
58363;DHT22;54977;51.510;7.522;2022-09-27T21:50:12;9.90;71.80
58363;DHT22;54977;51.510;7.522;2022-09-27T22:20:27;9.90;72.00
58363;DHT22;54977;51.510;7.522;2022-09-27T22:25:30;9.70;73.20
58363;DHT22;54977;51.510;7.522;2022-09-27T22:30:32;9.80;72.40
58363;DHT22;54977;51.510;7.522;2022-09-27T22:35:34;9.60;73.20
58363;DHT22;54977;51.510;7.522;2022-09-27T22:40:38;9.60;73.40
58363;DHT22;54977;51.510;7.522;2022-09-27T22:45:39;9.70;73.10
58363;DHT22;54977;51.510;7.522;2022-09-27T22:50:42;9.70;73.30
58363;DHT22;54977;51.510;7.522;2022-09-27T22:55:54;9.60;73.10
58363;DHT22;54977;51.510;7.522;2022-09-27T23:00:56;9.70;73.40
58363;DHT22;54977;51.510;7.522;2022-09-27T23:06:00;9.70;73.10
58363;DHT22;54977;51.510;7.522;2022-09-27T23:11:07;9.60;73.00
58363;DHT22;54977;51.510;7.522;2022-09-27T23:16:10;9.70;73.40
58363;DHT22;54977;51.510;7.522;2022-09-27T23:21:13;9.70;73.30
58363;DHT22;54977;51.510;7.522;2022-09-27T23:26:18;9.70;73.00
58363;DHT22;54977;51.510;7.522;2022-09-27T23:41:31;9.70;73.10
58363;DHT22;54977;51.510;7.522;2022-09-27T23:46:32;9.80;73.20
58363;DHT22;54977;51.510;7.522;2022-09-27T23:51:34;9.80;73.40
58363;DHT22;54977;51.510;7.522;2022-09-27T23:56:38;9.90;73.00
